createdAt,value
2022-09-23T00:01:07.776Z,99.90
2022-09-23T00:03:37.210Z,99.90
2022-09-23T00:06:12.747Z,99.90
2022-09-23T00:08:40.724Z,99.90
2022-09-23T00:11:11.012Z,99.90
2022-09-23T00:13:39.555Z,99.90
2022-09-23T00:16:09.334Z,99.90
2022-09-23T00:18:36.867Z,99.90
2022-09-23T00:21:09.951Z,99.90
2022-09-23T00:23:37.643Z,99.90
2022-09-23T00:26:07.597Z,99.90
2022-09-23T00:28:35.009Z,99.90
2022-09-23T00:31:06.631Z,99.90
2022-09-23T00:33:33.525Z,99.90
2022-09-23T00:36:05.752Z,99.90
2022-09-23T00:38:33.983Z,99.90
2022-09-23T00:41:01.153Z,99.90
2022-09-23T00:43:49.214Z,99.90
2022-09-23T00:46:22.140Z,99.90
2022-09-23T00:48:54.857Z,99.90
2022-09-23T00:51:24.967Z,99.90
2022-09-23T00:53:52.763Z,99.90
2022-09-23T00:56:23.005Z,99.90
2022-09-23T00:58:51.528Z,99.90
2022-09-23T01:01:20.502Z,99.90
2022-09-23T01:03:47.515Z,99.90
2022-09-23T01:06:14.862Z,99.90
2022-09-23T01:08:44.071Z,99.90
2022-09-23T01:11:45.234Z,99.90
2022-09-23T01:14:42.218Z,99.90
2022-09-23T01:17:24.303Z,99.90
2022-09-23T01:20:03.270Z,99.90
2022-09-23T01:22:36.157Z,99.90
2022-09-23T01:25:31.572Z,99.90
2022-09-23T01:28:06.089Z,99.90
2022-09-23T01:30:44.858Z,99.90
2022-09-23T01:33:20.813Z,99.90
2022-09-23T01:35:57.103Z,99.90
2022-09-23T01:38:36.544Z,99.90
2022-09-23T01:41:10.259Z,99.90
2022-09-23T01:44:00.293Z,99.90
2022-09-23T01:46:39.289Z,99.90
2022-09-23T01:49:17.360Z,99.90
2022-09-23T01:51:49.365Z,99.90
2022-09-23T01:55:04.470Z,99.90
2022-09-23T01:57:37.717Z,99.90
2022-09-23T02:00:24.089Z,99.90
2022-09-23T02:03:04.899Z,99.90
2022-09-23T02:05:53.439Z,99.90
2022-09-23T02:08:31.841Z,99.90
2022-09-23T02:11:16.157Z,99.90
2022-09-23T02:14:03.676Z,99.90
2022-09-23T02:16:36.227Z,99.90
2022-09-23T02:19:09.849Z,99.90
2022-09-23T02:21:41.114Z,99.90
2022-09-23T02:24:16.406Z,99.90
2022-09-23T02:26:51.728Z,99.90
2022-09-23T02:29:41.576Z,99.90
2022-09-23T02:32:28.966Z,99.90
2022-09-23T02:35:26.763Z,99.90
2022-09-23T02:38:11.292Z,99.90
2022-09-23T02:41:14.994Z,99.90
2022-09-23T02:43:54.208Z,99.90
2022-09-23T02:46:21.801Z,99.90
2022-09-23T02:48:53.445Z,99.90
2022-09-23T02:51:20.211Z,99.90
2022-09-23T02:53:47.675Z,99.90
2022-09-23T02:56:20.314Z,99.90
2022-09-23T02:58:51.841Z,99.90
2022-09-23T03:01:46.185Z,99.90
2022-09-23T03:04:31.613Z,99.90
2022-09-23T03:07:16.694Z,99.90
2022-09-23T03:10:13.185Z,99.90
2022-09-23T03:13:29.868Z,99.90
2022-09-23T03:16:06.066Z,99.90
2022-09-23T03:18:44.831Z,99.90
2022-09-23T03:21:34.312Z,99.90
2022-09-23T03:24:04.504Z,99.90
2022-09-23T03:26:37.425Z,99.90
2022-09-23T03:29:10.148Z,99.90
2022-09-23T03:31:39.717Z,99.90
2022-09-23T03:34:16.677Z,99.90
2022-09-23T03:37:01.638Z,99.90
2022-09-23T03:39:40.152Z,99.90
2022-09-23T03:42:30.071Z,99.90
2022-09-23T03:44:57.663Z,99.90
2022-09-23T03:47:26.612Z,99.90
2022-09-23T03:49:53.657Z,99.90
2022-09-23T03:52:23.045Z,99.90
2022-09-23T03:54:52.062Z,99.90
2022-09-23T03:57:20.159Z,99.90
2022-09-23T03:59:46.872Z,99.90
2022-09-23T04:02:15.637Z,99.90
2022-09-23T04:04:43.518Z,99.90
2022-09-23T04:07:11.981Z,99.90
2022-09-23T04:09:39.207Z,99.90
2022-09-23T04:12:06.854Z,99.90
2022-09-23T04:14:33.829Z,99.90
2022-09-23T04:17:00.473Z,99.90
2022-09-23T04:19:27.174Z,99.90
2022-09-23T04:21:53.940Z,99.90
2022-09-23T04:24:20.775Z,99.90
2022-09-23T04:26:51.549Z,99.90
2022-09-23T04:29:18.767Z,99.90
2022-09-23T04:31:45.749Z,99.90
2022-09-23T04:34:12.706Z,99.90
2022-09-23T04:36:39.703Z,99.90
2022-09-23T04:39:06.492Z,99.90
2022-09-23T04:41:33.264Z,99.90
2022-09-23T04:44:00.110Z,99.90
2022-09-23T04:46:26.950Z,99.90
2022-09-23T04:48:53.662Z,99.90
2022-09-23T04:51:22.704Z,99.90
2022-09-23T04:53:51.566Z,99.90
2022-09-23T04:56:24.271Z,99.90
2022-09-23T04:58:51.124Z,99.90
2022-09-23T05:01:25.231Z,99.90
2022-09-23T05:03:54.137Z,99.90
2022-09-23T05:06:21.836Z,99.90
2022-09-23T05:08:50.932Z,99.90
2022-09-23T05:11:18.693Z,99.90
2022-09-23T05:13:50.124Z,99.90
2022-09-23T05:16:17.691Z,99.90
2022-09-23T05:18:45.712Z,99.90
2022-09-23T05:21:14.889Z,99.90
2022-09-23T05:23:42.910Z,99.90
2022-09-23T05:26:12.554Z,99.90
2022-09-23T05:28:39.580Z,99.90
2022-09-23T05:31:07.735Z,99.90
2022-09-23T05:33:36.296Z,99.90
2022-09-23T05:36:04.101Z,99.90
2022-09-23T05:38:31.669Z,99.90
2022-09-23T05:41:04.381Z,99.90
2022-09-23T05:43:32.262Z,99.90
2022-09-23T05:46:08.429Z,99.90
2022-09-23T05:48:36.671Z,99.90
2022-09-23T05:51:04.488Z,99.90
2022-09-23T05:53:31.239Z,99.90
2022-09-23T05:55:58.540Z,99.90
2022-09-23T05:58:25.825Z,99.90
2022-09-23T06:00:53.578Z,99.90
2022-09-23T06:03:21.116Z,99.90
2022-09-23T06:05:48.442Z,99.90
2022-09-23T06:08:15.455Z,99.90
2022-09-23T06:10:44.789Z,99.90
2022-09-23T06:13:12.084Z,99.90
2022-09-23T06:15:39.605Z,99.90
2022-09-23T06:18:06.913Z,99.90
2022-09-23T06:20:34.850Z,99.90
2022-09-23T06:23:09.399Z,99.90
2022-09-23T06:25:40.981Z,99.90
2022-09-23T06:28:11.508Z,99.90
2022-09-23T06:30:42.553Z,99.90
2022-09-23T06:33:10.049Z,99.90
2022-09-23T06:35:37.057Z,99.90
2022-09-23T06:38:04.868Z,99.90
2022-09-23T06:40:31.943Z,99.90
2022-09-23T06:43:00.734Z,99.90
2022-09-23T06:45:28.426Z,99.90
2022-09-23T06:47:57.084Z,99.90
2022-09-23T06:50:27.290Z,99.90
2022-09-23T06:52:56.267Z,99.90
2022-09-23T06:55:27.747Z,99.90
2022-09-23T06:58:00.713Z,99.90
2022-09-23T07:00:27.685Z,99.90
2022-09-23T07:02:54.899Z,99.90
2022-09-23T07:05:22.388Z,99.90
2022-09-23T07:07:49.490Z,99.90
2022-09-23T07:10:16.360Z,99.90
2022-09-23T07:12:43.043Z,99.90
2022-09-23T07:15:10.205Z,99.90
2022-09-23T07:17:37.272Z,99.90
2022-09-23T07:20:04.636Z,99.90
2022-09-23T07:22:31.333Z,99.90
2022-09-23T07:24:58.052Z,99.90
2022-09-23T07:27:26.505Z,99.90
2022-09-23T07:29:53.917Z,99.90
2022-09-23T07:32:22.325Z,99.90
2022-09-23T07:34:49.409Z,99.90
2022-09-23T07:37:17.723Z,99.90
2022-09-23T07:39:45.171Z,99.90
2022-09-23T07:42:13.231Z,99.90
2022-09-23T07:44:43.239Z,99.90
2022-09-23T07:47:09.963Z,99.90
2022-09-23T07:49:37.032Z,99.90
2022-09-23T07:52:04.847Z,99.90
2022-09-23T07:54:32.554Z,99.90
2022-09-23T07:56:59.935Z,99.90
2022-09-23T07:59:27.252Z,99.90
2022-09-23T08:01:55.979Z,99.90
2022-09-23T08:04:31.989Z,99.90
2022-09-23T08:07:04.702Z,99.90
2022-09-23T08:09:39.286Z,99.90
2022-09-23T08:12:06.203Z,99.90
2022-09-23T08:14:32.914Z,99.90
2022-09-23T08:16:59.674Z,99.90
2022-09-23T08:19:26.350Z,99.90
2022-09-23T08:21:54.511Z,99.90
2022-09-23T08:24:24.135Z,99.90
2022-09-23T08:26:55.502Z,99.90
2022-09-23T08:29:23.706Z,99.90
2022-09-23T08:31:50.877Z,99.90
2022-09-23T08:34:19.769Z,99.90
2022-09-23T08:36:47.219Z,99.90
2022-09-23T08:39:18.328Z,99.90
2022-09-23T08:41:58.415Z,99.90
2022-09-23T08:44:40.171Z,99.90
2022-09-23T08:47:12.587Z,99.90
2022-09-23T08:49:53.322Z,99.90
2022-09-23T08:52:55.891Z,99.90
2022-09-23T08:55:49.489Z,99.90
2022-09-23T08:58:40.866Z,99.90
2022-09-23T09:01:13.866Z,99.90
2022-09-23T09:03:49.381Z,99.90
2022-09-23T09:06:51.741Z,99.90
2022-09-23T09:09:54.112Z,99.90
2022-09-23T09:12:45.225Z,99.90
2022-09-23T09:15:29.573Z,99.90
2022-09-23T09:18:19.932Z,99.90
2022-09-23T09:21:12.441Z,99.90
2022-09-23T09:24:02.134Z,99.90
2022-09-23T09:26:30.767Z,99.90
2022-09-23T09:29:35.347Z,99.90
2022-09-23T09:32:15.167Z,99.90
2022-09-23T09:34:54.629Z,99.90
2022-09-23T09:37:44.662Z,99.90
2022-09-23T09:40:12.907Z,99.90
2022-09-23T09:42:41.575Z,99.90
2022-09-23T09:45:21.222Z,99.90
2022-09-23T09:48:13.510Z,99.90
2022-09-23T09:50:47.074Z,99.90
2022-09-23T09:53:25.406Z,99.90
2022-09-23T09:56:05.769Z,99.90
2022-09-23T09:58:41.559Z,99.90
2022-09-23T10:01:09.095Z,99.90
2022-09-23T10:03:44.730Z,99.90
2022-09-23T10:06:24.435Z,99.90
2022-09-23T10:09:19.205Z,99.90
2022-09-23T10:12:04.475Z,99.90
2022-09-23T10:14:31.489Z,99.70
2022-09-23T10:17:07.777Z,99.70
2022-09-23T10:19:43.730Z,97.80
2022-09-23T10:22:22.121Z,97.30
2022-09-23T10:24:52.641Z,96.60
2022-09-23T10:27:30.096Z,96.60
2022-09-23T10:30:01.610Z,95.70
2022-09-23T10:32:30.040Z,95.50
2022-09-23T10:35:14.484Z,95.10
2022-09-23T10:37:45.534Z,95.20
2022-09-23T10:40:54.120Z,94.10
2022-09-23T10:43:54.728Z,94.10
2022-09-23T10:46:38.735Z,94.40
2022-09-23T10:49:14.170Z,93.30
2022-09-23T10:51:55.972Z,92.60
2022-09-23T10:54:45.041Z,93.20
2022-09-23T10:57:40.380Z,93.30
2022-09-23T11:00:15.839Z,94.30
2022-09-23T11:03:09.263Z,94.30
2022-09-23T11:05:39.103Z,95.00
2022-09-23T11:08:33.150Z,94.70
2022-09-23T11:11:18.466Z,91.50
2022-09-23T11:14:15.751Z,91.90
2022-09-23T11:16:54.736Z,91.50
2022-09-23T11:19:33.725Z,90.80
2022-09-23T11:22:32.272Z,91.30
2022-09-23T11:25:27.987Z,90.40
2022-09-23T11:28:29.976Z,90.70
2022-09-23T11:31:06.596Z,90.30
2022-09-23T11:33:42.190Z,89.30
2022-09-23T11:36:15.453Z,89.10
2022-09-23T11:38:48.637Z,90.10
2022-09-23T11:41:21.669Z,89.40
2022-09-23T11:43:53.143Z,89.20
2022-09-23T11:46:43.697Z,89.30
2022-09-23T11:49:10.430Z,89.30
2022-09-23T11:51:41.305Z,89.10
2022-09-23T11:54:24.358Z,89.70
2022-09-23T11:56:54.518Z,88.30
2022-09-23T12:02:56.539Z,88.60
2022-09-23T12:05:45.527Z,87.10
2022-09-23T12:08:15.772Z,88.40
2022-09-23T12:10:54.382Z,86.60
2022-09-23T12:13:35.033Z,87.70
2022-09-23T12:16:36.100Z,86.00
2022-09-23T12:19:36.689Z,87.30
2022-09-23T12:22:28.633Z,86.70
2022-09-23T12:25:07.223Z,87.70
2022-09-23T12:27:43.774Z,86.60
2022-09-23T12:30:32.569Z,87.60
2022-09-23T12:33:30.149Z,87.20
2022-09-23T12:36:10.086Z,85.10
2022-09-23T12:38:40.347Z,85.30
2022-09-23T12:41:37.668Z,85.10
2022-09-23T12:44:15.605Z,84.50
2022-09-23T12:46:46.424Z,85.50
2022-09-23T12:49:36.672Z,85.60
2022-09-23T12:52:18.661Z,83.30
2022-09-23T12:54:50.173Z,84.40
2022-09-23T12:57:35.014Z,83.50
2022-09-23T13:00:12.480Z,84.70
2022-09-23T13:03:11.059Z,84.40
2022-09-23T13:06:20.064Z,84.80
2022-09-23T13:08:49.196Z,83.30
2022-09-23T13:11:32.697Z,81.20
2022-09-23T13:14:02.538Z,80.80
2022-09-23T13:16:31.002Z,80.30
2022-09-23T13:18:59.544Z,82.00
2022-09-23T13:21:44.733Z,79.30
2022-09-23T13:24:23.159Z,79.70
2022-09-23T13:26:53.140Z,79.40
2022-09-23T13:29:23.628Z,79.30
2022-09-23T13:31:50.514Z,78.40
2022-09-23T13:34:22.866Z,77.40
2022-09-23T13:36:49.637Z,76.30
2022-09-23T13:39:29.140Z,76.10
2022-09-23T13:42:01.121Z,77.90
2022-09-23T13:44:28.892Z,75.80
2022-09-23T13:46:59.025Z,75.90
2022-09-23T13:49:29.517Z,75.50
2022-09-23T13:51:57.208Z,74.70
2022-09-23T13:54:28.964Z,75.00
2022-09-23T13:56:56.613Z,76.80
2022-09-23T13:59:28.102Z,75.90
2022-09-23T14:02:12.556Z,73.70
2022-09-23T14:04:39.362Z,76.10
2022-09-23T14:07:09.608Z,76.50
2022-09-23T14:09:37.997Z,76.20
2022-09-23T14:12:06.285Z,77.20
2022-09-23T14:14:37.031Z,75.70
2022-09-23T14:17:05.771Z,74.50
2022-09-23T14:19:34.606Z,73.70
2022-09-23T14:22:01.452Z,72.70
2022-09-23T14:24:34.184Z,72.40
2022-09-23T14:27:03.999Z,74.90
2022-09-23T14:29:36.892Z,75.10
2022-09-23T14:32:07.577Z,75.30
2022-09-23T14:34:55.469Z,75.10
2022-09-23T14:37:44.187Z,74.70
2022-09-23T14:40:22.818Z,77.40
2022-09-23T14:43:06.346Z,76.50
2022-09-23T14:45:39.951Z,77.40
2022-09-23T14:48:16.343Z,76.90
2022-09-23T14:51:01.154Z,77.70
2022-09-23T14:53:42.544Z,75.60
2022-09-23T14:56:13.717Z,75.30
2022-09-23T14:58:42.469Z,77.10
2022-09-23T15:01:30.432Z,77.70
2022-09-23T15:04:10.421Z,76.80
2022-09-23T15:06:53.724Z,76.00
2022-09-23T15:09:30.775Z,77.00
2022-09-23T15:12:25.014Z,76.70
2022-09-23T15:14:56.547Z,78.20
2022-09-23T15:17:23.433Z,77.10
2022-09-23T15:19:55.216Z,77.60
2022-09-23T15:22:22.944Z,78.80
2022-09-23T15:24:52.233Z,79.40
2022-09-23T15:27:33.890Z,79.90
2022-09-23T15:30:17.129Z,79.00
2022-09-23T15:32:45.264Z,78.90
2022-09-23T15:35:15.683Z,78.40
2022-09-23T15:37:44.258Z,79.60
2022-09-23T15:40:23.749Z,80.10
2022-09-23T15:42:53.855Z,79.90
2022-09-23T15:45:26.249Z,81.10
2022-09-23T15:47:53.179Z,80.70
2022-09-23T15:50:19.940Z,82.40
2022-09-23T15:52:46.704Z,81.00
2022-09-23T15:55:19.080Z,81.50
2022-09-23T15:57:45.790Z,82.30
2022-09-23T16:00:13.564Z,83.30
2022-09-23T16:02:41.082Z,85.00
2022-09-23T16:05:34.787Z,84.10
2022-09-23T16:08:07.819Z,84.10
2022-09-23T16:10:36.031Z,84.50
2022-09-23T16:13:04.873Z,84.70
2022-09-23T16:15:32.750Z,85.50
2022-09-23T16:18:00.497Z,87.30
2022-09-23T16:20:29.702Z,87.90
2022-09-23T16:22:58.113Z,90.00
2022-09-23T16:25:28.061Z,90.00
2022-09-23T16:27:56.235Z,89.80
2022-09-23T16:30:23.972Z,90.90
2022-09-23T16:32:51.932Z,91.00
2022-09-23T16:35:23.594Z,91.00
2022-09-23T16:37:50.969Z,91.90
2022-09-23T16:40:20.605Z,92.30
2022-09-23T16:42:48.384Z,94.30
2022-09-23T16:45:18.010Z,95.40
2022-09-23T16:47:47.013Z,95.70
2022-09-23T16:50:15.496Z,95.40
2022-09-23T16:52:42.765Z,95.50
2022-09-23T16:55:11.702Z,95.90
2022-09-23T16:57:39.673Z,96.50
2022-09-23T17:00:31.216Z,98.10
2022-09-23T17:03:30.202Z,98.50
2022-09-23T17:05:56.927Z,98.30
2022-09-23T17:08:23.652Z,99.10
2022-09-23T17:10:58.302Z,99.20
2022-09-23T17:13:26.726Z,99.30
2022-09-23T17:15:54.171Z,99.80
2022-09-23T17:18:21.554Z,99.90
2022-09-23T17:21:02.640Z,99.80
2022-09-23T17:23:31.673Z,99.90
2022-09-23T17:25:59.764Z,99.90
2022-09-23T17:28:26.592Z,99.90
2022-09-23T17:31:01.201Z,99.90
2022-09-23T17:33:29.902Z,99.90
2022-09-23T17:35:57.428Z,99.90
2022-09-23T17:38:28.918Z,99.90
2022-09-23T17:40:57.505Z,99.90
2022-09-23T17:43:27.209Z,99.90
2022-09-23T17:45:56.723Z,99.90
2022-09-23T17:48:25.216Z,99.90
2022-09-23T17:50:55.207Z,99.90
2022-09-23T17:53:22.636Z,99.90
2022-09-23T17:56:04.268Z,99.90
2022-09-23T17:58:34.499Z,99.90
2022-09-23T18:01:01.923Z,99.90
2022-09-23T18:03:30.271Z,99.90
2022-09-23T18:06:18.804Z,99.90
2022-09-23T18:08:47.895Z,99.90
2022-09-23T18:11:23.087Z,99.90
2022-09-23T18:13:53.913Z,99.90
2022-09-23T18:16:22.918Z,99.90
2022-09-23T18:18:54.386Z,99.90
2022-09-23T18:21:22.542Z,99.90
2022-09-23T18:23:50.421Z,99.90
2022-09-23T18:26:19.205Z,99.90
2022-09-23T18:28:46.334Z,99.90
2022-09-23T18:31:13.712Z,99.90
2022-09-23T18:33:41.001Z,99.90
2022-09-23T18:36:08.818Z,99.90
2022-09-23T18:38:35.550Z,99.90
2022-09-23T18:41:02.530Z,99.90
2022-09-23T18:43:40.047Z,99.90
2022-09-23T18:46:14.112Z,99.90
2022-09-23T18:48:59.339Z,99.90
2022-09-23T18:51:29.012Z,99.90
2022-09-23T18:53:59.951Z,99.90
2022-09-23T18:56:29.745Z,99.90
2022-09-23T18:58:56.545Z,99.90
2022-09-23T19:01:24.086Z,99.90
2022-09-23T19:03:56.156Z,99.90
2022-09-23T19:06:23.972Z,99.90
2022-09-23T19:08:52.561Z,99.90
2022-09-23T19:11:19.937Z,99.90
2022-09-23T19:13:46.840Z,99.90
2022-09-23T19:16:15.838Z,99.90
2022-09-23T19:18:46.356Z,99.90
2022-09-23T19:21:14.259Z,99.90
2022-09-23T19:23:49.718Z,99.90
2022-09-23T19:26:19.593Z,99.90
2022-09-23T19:28:52.094Z,99.90
2022-09-23T19:31:22.982Z,99.90
2022-09-23T19:33:59.233Z,99.90
2022-09-23T19:36:29.713Z,99.90
2022-09-23T19:38:58.053Z,99.90
2022-09-23T19:41:26.529Z,99.90
2022-09-23T19:43:54.179Z,99.90
2022-09-23T19:46:22.314Z,99.90
2022-09-23T19:48:49.119Z,99.90
2022-09-23T19:51:16.504Z,99.90
2022-09-23T19:53:43.326Z,99.90
2022-09-23T19:56:09.993Z,99.90
2022-09-23T19:58:36.684Z,99.90
2022-09-23T20:01:07.221Z,99.90
2022-09-23T20:03:34.084Z,99.90
2022-09-23T20:06:00.765Z,99.90
2022-09-23T20:08:27.428Z,99.90
2022-09-23T20:10:54.140Z,99.90
2022-09-23T20:13:21.619Z,99.90
2022-09-23T20:15:48.933Z,99.90
2022-09-23T20:18:15.881Z,99.90
2022-09-23T20:20:42.650Z,99.90
2022-09-23T20:23:09.328Z,99.90
2022-09-23T20:25:54.653Z,99.90
2022-09-23T20:28:22.304Z,99.90
2022-09-23T20:30:49.031Z,99.90
2022-09-23T20:33:15.761Z,99.90
2022-09-23T20:35:43.784Z,99.90
2022-09-23T20:38:10.760Z,99.90
2022-09-23T20:40:38.521Z,99.90
2022-09-23T20:43:05.366Z,99.90
2022-09-23T20:45:32.558Z,99.90
2022-09-23T20:48:00.309Z,99.90
2022-09-23T20:50:27.092Z,99.90
2022-09-23T20:52:53.764Z,99.90
2022-09-23T20:55:20.498Z,99.90
2022-09-23T20:57:50.027Z,99.90
2022-09-23T21:00:18.312Z,99.90
2022-09-23T21:02:45.032Z,99.90
2022-09-23T21:05:11.687Z,99.90
2022-09-23T21:07:38.487Z,99.90
2022-09-23T21:10:07.292Z,99.90
2022-09-23T21:12:35.162Z,99.90
2022-09-23T21:15:02.314Z,99.90
2022-09-23T21:17:29.072Z,99.90
2022-09-23T21:19:55.763Z,99.90
2022-09-23T21:22:22.668Z,99.90
2022-09-23T21:25:31.566Z,99.90
2022-09-23T21:27:37.177Z,99.90
2022-09-23T21:30:05.057Z,99.90
2022-09-23T21:32:31.755Z,99.90
2022-09-23T21:34:58.405Z,99.90
2022-09-23T21:37:26.081Z,99.90
2022-09-23T21:40:11.714Z,99.90
2022-09-23T21:42:38.460Z,99.90
2022-09-23T21:45:06.149Z,99.90
2022-09-23T21:47:32.853Z,99.90
2022-09-23T21:49:59.603Z,99.90
2022-09-23T21:52:26.308Z,99.90
2022-09-23T21:54:52.954Z,99.90
2022-09-23T21:57:19.679Z,99.90
2022-09-23T21:59:47.328Z,99.90
2022-09-23T22:02:14.012Z,99.90
2022-09-23T22:04:40.762Z,99.90
2022-09-23T22:07:07.442Z,99.90
2022-09-23T22:09:34.099Z,99.90
2022-09-23T22:12:11.639Z,99.90
2022-09-23T22:14:39.264Z,99.90
2022-09-23T22:17:07.975Z,99.90
2022-09-23T22:19:40.329Z,99.90
2022-09-23T22:22:14.355Z,99.90
2022-09-23T22:24:46.655Z,99.90
2022-09-23T22:27:16.675Z,99.90
2022-09-23T22:30:02.126Z,99.90
2022-09-23T22:32:41.121Z,99.90
2022-09-23T22:35:18.231Z,99.90
2022-09-23T22:37:45.561Z,99.90
2022-09-23T22:40:14.625Z,99.90
2022-09-23T22:42:42.282Z,99.90
2022-09-23T22:45:10.672Z,99.90
2022-09-23T22:47:39.567Z,99.90
2022-09-23T22:50:08.579Z,99.90
2022-09-23T22:52:35.739Z,99.90
2022-09-23T22:55:03.621Z,99.90
2022-09-23T22:57:31.250Z,99.90
2022-09-23T22:59:57.996Z,99.90
2022-09-23T23:02:24.835Z,99.90
2022-09-23T23:04:51.624Z,99.90
2022-09-23T23:07:21.044Z,99.90
2022-09-23T23:09:50.025Z,99.90
2022-09-23T23:12:17.155Z,99.90
2022-09-23T23:14:43.874Z,99.90
2022-09-23T23:17:10.637Z,99.90
2022-09-23T23:19:37.400Z,99.90
2022-09-23T23:22:06.156Z,99.90
2022-09-23T23:24:32.817Z,99.90
2022-09-23T23:26:59.595Z,99.90
2022-09-23T23:29:27.738Z,99.90
2022-09-23T23:31:54.637Z,99.90
2022-09-23T23:34:21.792Z,99.90
2022-09-23T23:36:54.611Z,99.90
2022-09-23T23:39:23.556Z,99.90
2022-09-23T23:41:57.933Z,99.90
2022-09-23T23:44:26.166Z,99.90
2022-09-23T23:46:54.506Z,99.90
2022-09-23T23:49:21.733Z,99.90
2022-09-23T23:51:48.820Z,99.90
2022-09-23T23:54:15.629Z,99.90
2022-09-23T23:56:42.927Z,99.90
2022-09-23T23:59:09.620Z,99.90
